Berlin Heights, Ohio
Current Conditions -  °F | °C
As of 1:53 PM on Thursday 18 Dec 2014 (Local Time) from KLPR Reporting Station
Overcast Overcast  
Wind Chill: 21°   Ceiling: 2000
Heat Index: 30°   Visibility: 10mi
Dew Point: 24°   Wind: 10mph
Humidity: 79%   Direction: 260°W
Pressure: 30.18"   Gusts: NA
Location:  41.33°N, 82.49°W
Report Text: KLPR 181853Z AUTO 26009KT 10SM OVC020 M01/M04 A3018 RMK AO2 SLP229 T10111044 TSNO
Loading
Personal Weather Stations






























Interactive Weather Map New forecast layout! Learn more

10-Day Weather Forecast

Advertisements
Track Severe Weather on mobile